In Rescue
 
Open Full Screen Window  High Contrast Mode
Wind Gusting 28 knots
21
October 25, 2021 5:20 PM EDT
Weather Information
Wind Direction
  040 °
Wind Speed
  21 kt (24 mph)
Wind Gust
  28 kt (32 mph)
Altimeter
29.93 in
Visibility
10 SM
Temperature
11° C
52° F
Dewpoint
04° C
39° F
Humidity
62%
1hr Rain Fall
00.00 in.
24hr Rain Fall
00.00 in.
Sky Condition
Broken @ 4,500 ft
Broken @ 3,900 ft
Broken @ 3,000 ft
MVFR

METAR KOSC 252120Z AUTO 04021G28KT 10SM BKN030 BKN039 BKN045 11/04 A2993 RMK AO2 T01050042

FAA Disclaimer: The data displayed is for advisory purposes only and is not to be used for flight planning or operations.